sensor_id;sensor_type;location;lat;lon;timestamp;temperature;humidity
77218;DHT22;66214;51.302;17.068;2023-02-13T00:01:17;5.77;84.10
77218;DHT22;66214;51.302;17.068;2023-02-13T00:03:45;5.77;84.14
77218;DHT22;66214;51.302;17.068;2023-02-13T00:06:13;5.78;84.38
77218;DHT22;66214;51.302;17.068;2023-02-13T00:08:41;5.79;84.48
77218;DHT22;66214;51.302;17.068;2023-02-13T19:18:16;6.35;81.30
77218;DHT22;66214;51.302;17.068;2023-02-13T19:20:44;6.32;81.07
77218;DHT22;66214;51.302;17.068;2023-02-13T19:23:12;6.27;80.96
77218;DHT22;66214;51.302;17.068;2023-02-13T19:25:40;6.22;80.82
77218;DHT22;66214;51.302;17.068;2023-02-13T19:28:08;6.20;81.00
77218;DHT22;66214;51.302;17.068;2023-02-13T19:30:36;6.20;81.34
77218;DHT22;66214;51.302;17.068;2023-02-13T19:33:04;6.19;81.42
77218;DHT22;66214;51.302;17.068;2023-02-13T19:35:31;6.18;81.52
77218;DHT22;66214;51.302;17.068;2023-02-13T19:37:59;6.19;81.54
77218;DHT22;66214;51.302;17.068;2023-02-13T19:40:27;6.20;81.57
77218;DHT22;66214;51.302;17.068;2023-02-13T19:42:55;6.20;81.46
77218;DHT22;66214;51.302;17.068;2023-02-13T19:45:23;6.20;81.38
77218;DHT22;66214;51.302;17.068;2023-02-13T19:47:51;6.17;81.22
77218;DHT22;66214;51.302;17.068;2023-02-13T19:50:21;6.14;81.24
77218;DHT22;66214;51.302;17.068;2023-02-13T19:52:50;6.09;81.20
77218;DHT22;66214;51.302;17.068;2023-02-13T19:58:30;6.06;81.40
77218;DHT22;66214;51.302;17.068;2023-02-13T20:01:09;6.07;81.60
77218;DHT22;66214;51.302;17.068;2023-02-13T20:03:46;6.07;81.65
77218;DHT22;66214;51.302;17.068;2023-02-13T20:06:16;6.11;81.86
77218;DHT22;66214;51.302;17.068;2023-02-13T20:08:50;6.13;81.87
77218;DHT22;66214;51.302;17.068;2023-02-13T20:11:20;6.14;81.89
77218;DHT22;66214;51.302;17.068;2023-02-13T20:13:51;6.14;81.71
77218;DHT22;66214;51.302;17.068;2023-02-13T20:16:21;6.12;81.55
77218;DHT22;66214;51.302;17.068;2023-02-13T20:18:50;6.10;81.45
77218;DHT22;66214;51.302;17.068;2023-02-13T20:21:18;6.08;81.48
77218;DHT22;66214;51.302;17.068;2023-02-13T20:23:47;6.03;81.43
77218;DHT22;66214;51.302;17.068;2023-02-13T20:26:17;6.00;81.36
77218;DHT22;66214;51.302;17.068;2023-02-13T20:28:47;5.98;81.43
77218;DHT22;66214;51.302;17.068;2023-02-13T20:31:15;5.95;81.99
77218;DHT22;66214;51.302;17.068;2023-02-13T20:33:48;5.94;82.04
77218;DHT22;66214;51.302;17.068;2023-02-13T20:36:22;5.94;82.16
77218;DHT22;66214;51.302;17.068;2023-02-13T20:38:56;5.93;82.20
77218;DHT22;66214;51.302;17.068;2023-02-13T20:41:28;5.93;82.29
77218;DHT22;66214;51.302;17.068;2023-02-13T20:44:00;5.89;82.11
77218;DHT22;66214;51.302;17.068;2023-02-13T20:46:34;5.87;81.99
77218;DHT22;66214;51.302;17.068;2023-02-13T20:49:04;5.87;81.80
77218;DHT22;66214;51.302;17.068;2023-02-13T20:51:33;5.86;81.70
77218;DHT22;66214;51.302;17.068;2023-02-13T20:54:01;5.83;81.62
77218;DHT22;66214;51.302;17.068;2023-02-13T20:56:30;5.79;81.65
77218;DHT22;66214;51.302;17.068;2023-02-13T20:58:59;5.76;81.64
77218;DHT22;66214;51.302;17.068;2023-02-13T21:01:30;5.76;81.77
77218;DHT22;66214;51.302;17.068;2023-02-13T21:04:01;5.77;81.91
77218;DHT22;66214;51.302;17.068;2023-02-13T21:06:34;5.77;82.01
77218;DHT22;66214;51.302;17.068;2023-02-13T21:09:04;5.76;81.96
77218;DHT22;66214;51.302;17.068;2023-02-13T21:11:35;5.74;81.84
77218;DHT22;66214;51.302;17.068;2023-02-13T21:14:06;5.73;81.23
77218;DHT22;66214;51.302;17.068;2023-02-13T21:16:36;5.71;80.70
77218;DHT22;66214;51.302;17.068;2023-02-13T21:19:08;5.69;80.49
77218;DHT22;66214;51.302;17.068;2023-02-13T21:21:42;5.67;80.14
77218;DHT22;66214;51.302;17.068;2023-02-13T21:24:15;5.63;79.64
77218;DHT22;66214;51.302;17.068;2023-02-13T21:26:49;5.60;79.70
77218;DHT22;66214;51.302;17.068;2023-02-13T21:29:19;5.56;79.78
77218;DHT22;66214;51.302;17.068;2023-02-13T21:31:47;5.54;79.90
77218;DHT22;66214;51.302;17.068;2023-02-13T21:34:16;5.54;80.14
77218;DHT22;66214;51.302;17.068;2023-02-13T21:36:45;5.54;80.41
77218;DHT22;66214;51.302;17.068;2023-02-13T21:39:13;5.54;80.53
77218;DHT22;66214;51.302;17.068;2023-02-13T21:41:42;5.54;80.62
77218;DHT22;66214;51.302;17.068;2023-02-13T21:44:13;5.53;80.67
77218;DHT22;66214;51.302;17.068;2023-02-13T21:46:43;5.51;80.51
77218;DHT22;66214;51.302;17.068;2023-02-13T21:49:13;5.47;80.43
77218;DHT22;66214;51.302;17.068;2023-02-13T21:51:43;5.46;80.36
77218;DHT22;66214;51.302;17.068;2023-02-13T21:54:12;5.44;80.17
77218;DHT22;66214;51.302;17.068;2023-02-13T21:56:41;5.39;80.10
77218;DHT22;66214;51.302;17.068;2023-02-13T21:59:13;5.36;80.05
77218;DHT22;66214;51.302;17.068;2023-02-13T22:01:45;5.33;79.98
77218;DHT22;66214;51.302;17.068;2023-02-13T22:04:16;5.32;80.14
77218;DHT22;66214;51.302;17.068;2023-02-13T22:06:48;5.33;80.32
77218;DHT22;66214;51.302;17.068;2023-02-13T22:09:19;5.33;80.33
77218;DHT22;66214;51.302;17.068;2023-02-13T22:11:48;5.35;80.37
77218;DHT22;66214;51.302;17.068;2023-02-13T22:14:20;5.34;80.16
77218;DHT22;66214;51.302;17.068;2023-02-13T22:16:49;5.34;80.08
77218;DHT22;66214;51.302;17.068;2023-02-13T22:19:18;5.34;79.98
77218;DHT22;66214;51.302;17.068;2023-02-13T22:21:46;5.34;79.89
77218;DHT22;66214;51.302;17.068;2023-02-13T22:24:15;5.32;79.74
77218;DHT22;66214;51.302;17.068;2023-02-13T22:26:43;5.30;79.63
77218;DHT22;66214;51.302;17.068;2023-02-13T22:29:12;5.26;79.62
77218;DHT22;66214;51.302;17.068;2023-02-13T22:31:42;5.22;79.62
77218;DHT22;66214;51.302;17.068;2023-02-13T22:34:11;5.20;79.53
77218;DHT22;66214;51.302;17.068;2023-02-13T22:36:40;5.20;79.74
77218;DHT22;66214;51.302;17.068;2023-02-13T22:39:09;5.21;79.93
77218;DHT22;66214;51.302;17.068;2023-02-13T22:41:38;5.21;80.11
77218;DHT22;66214;51.302;17.068;2023-02-13T22:44:06;5.22;80.19
77218;DHT22;66214;51.302;17.068;2023-02-13T22:46:34;5.23;80.28
77218;DHT22;66214;51.302;17.068;2023-02-13T22:49:02;5.22;80.09
77218;DHT22;66214;51.302;17.068;2023-02-13T22:51:31;5.19;79.88
77218;DHT22;66214;51.302;17.068;2023-02-13T22:54:02;5.18;79.77
77218;DHT22;66214;51.302;17.068;2023-02-13T22:56:31;5.17;79.62
77218;DHT22;66214;51.302;17.068;2023-02-13T22:59:00;5.15;79.63
77218;DHT22;66214;51.302;17.068;2023-02-13T23:01:29;5.15;79.47
77218;DHT22;66214;51.302;17.068;2023-02-13T23:03:57;5.13;79.39
77218;DHT22;66214;51.302;17.068;2023-02-13T23:06:25;5.11;79.34
77218;DHT22;66214;51.302;17.068;2023-02-13T23:08:53;5.09;79.30
77218;DHT22;66214;51.302;17.068;2023-02-13T23:14:34;5.10;79.87
77218;DHT22;66214;51.302;17.068;2023-02-13T23:17:02;5.13;80.15
77218;DHT22;66214;51.302;17.068;2023-02-13T23:19:48;5.15;80.24
77218;DHT22;66214;51.302;17.068;2023-02-13T23:22:16;5.17;80.30
77218;DHT22;66214;51.302;17.068;2023-02-13T23:24:44;5.16;80.13
77218;DHT22;66214;51.302;17.068;2023-02-13T23:27:13;5.16;79.95
77218;DHT22;66214;51.302;17.068;2023-02-13T23:29:42;5.16;79.69
77218;DHT22;66214;51.302;17.068;2023-02-13T23:32:10;5.15;79.52
77218;DHT22;66214;51.302;17.068;2023-02-13T23:34:38;5.13;79.47
77218;DHT22;66214;51.302;17.068;2023-02-13T23:37:06;5.12;79.27
77218;DHT22;66214;51.302;17.068;2023-02-13T23:39:34;5.09;79.34
77218;DHT22;66214;51.302;17.068;2023-02-13T23:42:01;5.05;79.19
77218;DHT22;66214;51.302;17.068;2023-02-13T23:44:29;5.02;79.15
77218;DHT22;66214;51.302;17.068;2023-02-13T23:46:57;4.99;79.20
77218;DHT22;66214;51.302;17.068;2023-02-13T23:49:25;4.99;79.40
77218;DHT22;66214;51.302;17.068;2023-02-13T23:51:53;4.98;79.74
77218;DHT22;66214;51.302;17.068;2023-02-13T23:54:21;5.00;80.05
77218;DHT22;66214;51.302;17.068;2023-02-13T23:56:51;5.03;80.20
77218;DHT22;66214;51.302;17.068;2023-02-13T23:59:21;5.06;80.28
